createdAt,value
2023-04-11T00:00:56.998Z,2.90
2023-04-11T00:03:25.181Z,2.90
2023-04-11T00:05:53.058Z,2.80
2023-04-11T00:08:20.766Z,3.00
2023-04-11T00:10:49.767Z,2.70
2023-04-11T00:13:19.614Z,2.92
2023-04-11T00:15:47.648Z,3.20
2023-04-11T00:18:15.425Z,2.90
2023-04-11T00:20:43.171Z,3.13
2023-04-11T00:23:11.021Z,2.80
2023-04-11T00:25:38.742Z,2.90
2023-04-11T00:28:07.760Z,3.00
2023-04-11T00:30:35.537Z,2.67
2023-04-11T00:33:03.897Z,2.80
2023-04-11T00:35:34.375Z,2.92
2023-04-11T00:38:03.829Z,2.92
2023-04-11T00:40:32.503Z,3.05
2023-04-11T00:43:00.222Z,3.00
2023-04-11T00:45:29.397Z,2.72
2023-04-11T00:47:57.110Z,2.90
2023-04-11T00:50:25.109Z,2.80
2023-04-11T00:52:52.893Z,2.70
2023-04-11T00:55:20.554Z,3.00
2023-04-11T00:57:48.212Z,2.63
2023-04-11T01:00:16.492Z,2.90
2023-04-11T01:02:46.604Z,2.72
2023-04-11T01:05:14.670Z,2.75
2023-04-11T01:07:43.387Z,3.08
2023-04-11T01:10:11.275Z,2.67
2023-04-11T01:12:38.938Z,2.85
2023-04-11T01:15:07.715Z,2.50
2023-04-11T01:17:35.463Z,2.90
2023-04-11T01:20:07.280Z,2.88
2023-04-11T01:22:35.797Z,2.90
2023-04-11T01:25:06.197Z,2.70
2023-04-11T01:27:34.199Z,2.50
2023-04-11T01:30:01.903Z,2.55
2023-04-11T01:32:29.768Z,2.70
2023-04-11T01:34:57.998Z,2.67
2023-04-11T01:37:25.694Z,3.10
2023-04-11T01:39:53.410Z,2.45
2023-04-11T01:42:22.676Z,2.90
2023-04-11T01:44:53.156Z,2.58
2023-04-11T01:47:20.897Z,2.70
2023-04-11T01:49:50.958Z,2.60
2023-04-11T01:52:18.652Z,2.60
2023-04-11T01:54:46.545Z,2.78
2023-04-11T01:57:14.823Z,2.38
2023-04-11T01:59:43.880Z,2.70
2023-04-11T02:02:11.651Z,2.83
2023-04-11T02:04:39.464Z,2.70
2023-04-11T02:07:07.239Z,2.60
2023-04-11T02:09:34.963Z,2.78
2023-04-11T02:12:02.694Z,2.88
2023-04-11T02:14:39.625Z,2.67
2023-04-11T02:17:09.883Z,2.47
2023-04-11T02:19:37.734Z,2.60
2023-04-11T02:22:05.581Z,2.53
2023-04-11T02:24:33.237Z,2.25
2023-04-11T02:27:01.572Z,2.50
2023-04-11T02:29:29.310Z,2.53
2023-04-11T02:31:57.099Z,2.60
2023-04-11T02:34:26.399Z,2.88
2023-04-11T02:36:54.159Z,2.40
2023-04-11T02:39:23.824Z,2.30
2023-04-11T02:41:51.728Z,2.65
2023-04-11T02:44:19.819Z,2.55
2023-04-11T02:46:47.902Z,2.38
2023-04-11T02:49:15.708Z,2.60
2023-04-11T02:51:48.250Z,2.53
2023-04-11T02:54:16.061Z,2.53
2023-04-11T02:56:43.774Z,2.70
2023-04-11T02:59:11.496Z,2.67
2023-04-11T03:01:39.317Z,2.47
2023-04-11T03:04:07.421Z,2.50
2023-04-11T03:06:49.816Z,2.58
2023-04-11T03:09:17.485Z,2.50
2023-04-11T03:11:47.320Z,2.78
2023-04-11T03:14:15.981Z,2.80
2023-04-11T03:16:43.977Z,2.38
2023-04-11T03:19:12.750Z,2.92
2023-04-11T03:21:40.437Z,2.55
2023-04-11T03:24:09.883Z,2.53
2023-04-11T03:26:37.588Z,2.50
2023-04-11T03:29:11.095Z,2.42
2023-04-11T03:31:51.378Z,2.55
2023-04-11T03:34:19.550Z,2.40
2023-04-11T03:36:47.301Z,2.17
2023-04-11T03:39:16.851Z,2.63
2023-04-11T03:41:44.612Z,2.33
2023-04-11T03:44:12.865Z,2.53
2023-04-11T03:46:41.086Z,2.30
2023-04-11T03:49:09.563Z,2.30
2023-04-11T03:51:37.354Z,2.50
2023-04-11T03:54:07.706Z,2.30
2023-04-11T03:56:40.982Z,2.55
2023-04-11T03:59:15.529Z,2.25
2023-04-11T04:01:57.709Z,2.25
2023-04-11T04:04:25.739Z,2.60
2023-04-11T04:07:04.710Z,2.45
2023-04-11T04:09:38.385Z,2.55
2023-04-11T04:12:08.014Z,2.13
2023-04-11T04:14:58.013Z,2.17
2023-04-11T04:17:26.391Z,2.20
2023-04-11T04:19:54.661Z,2.20
2023-04-11T04:22:23.678Z,2.38
2023-04-11T04:24:57.946Z,2.22
2023-04-11T04:27:30.413Z,2.10
2023-04-11T04:30:01.713Z,2.50
2023-04-11T04:32:41.099Z,2.40
2023-04-11T04:35:11.937Z,2.20
2023-04-11T04:37:45.724Z,2.00
2023-04-11T04:40:22.541Z,2.20
2023-04-11T04:42:59.118Z,2.03
2023-04-11T04:45:59.168Z,2.35
2023-04-11T04:48:37.299Z,1.77
2023-04-11T04:51:05.935Z,2.28
2023-04-11T04:53:38.515Z,1.90
2023-04-11T04:56:08.346Z,1.98
2023-04-11T04:58:47.361Z,1.80
2023-04-11T05:01:17.636Z,2.00
2023-04-11T05:03:58.676Z,1.95
2023-04-11T05:06:37.964Z,1.90
2023-04-11T05:09:06.382Z,2.15
2023-04-11T05:11:34.724Z,1.90
2023-04-11T05:14:03.770Z,1.88
2023-04-11T05:16:31.770Z,2.03
2023-04-11T05:19:00.302Z,1.75
2023-04-11T05:21:28.430Z,2.08
2023-04-11T05:23:56.435Z,1.60
2023-04-11T05:26:25.439Z,2.10
2023-04-11T05:28:53.159Z,1.73
2023-04-11T05:31:25.800Z,1.70
2023-04-11T05:33:53.792Z,1.95
2023-04-11T05:36:21.806Z,1.83
2023-04-11T05:38:49.511Z,1.60
2023-04-11T05:41:17.181Z,1.80
2023-04-11T05:43:44.864Z,1.63
2023-04-11T05:46:12.721Z,1.65
2023-04-11T05:48:42.299Z,1.73
2023-04-11T05:51:11.232Z,1.88
2023-04-11T05:53:38.981Z,1.80
2023-04-11T05:56:07.475Z,2.00
2023-04-11T05:58:36.938Z,2.03
2023-04-11T06:01:05.121Z,1.60
2023-04-11T06:03:32.961Z,2.22
2023-04-11T06:06:02.651Z,1.90
2023-04-11T06:08:30.336Z,1.92
2023-04-11T06:10:58.162Z,2.03
2023-04-11T06:13:26.071Z,1.50
2023-04-11T06:15:53.781Z,1.60
2023-04-11T06:18:21.507Z,1.48
2023-04-11T06:20:49.529Z,1.90
2023-04-11T06:23:18.613Z,1.83
2023-04-11T06:25:46.340Z,1.40
2023-04-11T06:28:14.672Z,1.85
2023-04-11T06:30:42.824Z,1.60
2023-04-11T06:33:11.085Z,1.60
2023-04-11T06:35:39.080Z,1.55
2023-04-11T06:38:06.870Z,1.55
2023-04-11T06:40:36.364Z,1.60
2023-04-11T06:43:04.056Z,1.65
2023-04-11T06:45:31.992Z,1.35
2023-04-11T06:47:59.714Z,1.40
2023-04-11T06:50:27.500Z,1.60
2023-04-11T06:52:55.312Z,1.95
2023-04-11T06:55:23.288Z,1.40
2023-04-11T06:57:52.314Z,1.50
2023-04-11T07:00:21.356Z,1.35
2023-04-11T07:02:49.415Z,1.60
2023-04-11T07:05:17.445Z,1.55
2023-04-11T07:07:45.110Z,1.40
2023-04-11T07:10:12.777Z,1.27
2023-04-11T07:12:40.472Z,1.58
2023-04-11T07:15:11.061Z,1.60
2023-04-11T07:17:38.824Z,1.40
2023-04-11T07:20:09.194Z,1.30
2023-04-11T07:22:37.435Z,1.60
2023-04-11T07:25:05.773Z,1.20
2023-04-11T07:27:36.171Z,1.63
2023-04-11T07:30:04.680Z,2.50
2023-04-11T07:32:33.736Z,3.55
2023-04-11T07:35:01.476Z,4.75
2023-04-11T07:37:30.210Z,6.28
2023-04-11T07:39:58.014Z,3.92
2023-04-11T07:42:25.778Z,3.85
2023-04-11T07:44:53.516Z,5.18
2023-04-11T07:47:21.387Z,7.03
2023-04-11T07:49:50.486Z,4.03
2023-04-11T07:52:18.205Z,4.53
2023-04-11T07:54:46.097Z,5.90
2023-04-11T07:57:13.778Z,2.67
2023-04-11T07:59:42.332Z,3.92
2023-04-11T08:02:10.144Z,6.47
2023-04-11T08:04:38.127Z,3.60
2023-04-11T08:07:07.740Z,3.58
2023-04-11T08:09:35.461Z,4.88
2023-04-11T08:12:03.382Z,6.68
2023-04-11T08:14:31.133Z,6.43
2023-04-11T08:17:00.098Z,3.65
2023-04-11T08:19:28.047Z,4.60
2023-04-11T08:21:56.286Z,4.57
2023-04-11T08:24:25.310Z,5.90
2023-04-11T08:26:53.033Z,6.20
2023-04-11T08:29:20.694Z,7.97
2023-04-11T08:31:48.362Z,4.35
2023-04-11T08:34:16.584Z,4.22
2023-04-11T08:36:44.350Z,6.43
2023-04-11T08:39:12.148Z,6.15
2023-04-11T08:41:41.175Z,14.20
2023-04-11T08:44:11.765Z,7.20
2023-04-11T08:46:41.906Z,4.22
2023-04-11T08:49:09.658Z,5.38
2023-04-11T08:51:37.346Z,5.60
2023-04-11T08:54:05.967Z,5.32
2023-04-11T08:56:34.879Z,7.40
2023-04-11T08:59:03.963Z,6.30
2023-04-11T09:01:33.019Z,7.72
2023-04-11T09:04:01.301Z,11.57
2023-04-11T09:06:30.637Z,7.03
2023-04-11T09:08:59.140Z,7.95
2023-04-11T09:11:27.067Z,8.52
2023-04-11T09:14:09.115Z,7.90
2023-04-11T09:16:36.920Z,8.88
2023-04-11T09:19:04.798Z,9.90
2023-04-11T09:21:32.536Z,12.07
2023-04-11T09:24:14.892Z,11.20
2023-04-11T09:26:42.787Z,12.50
2023-04-11T09:29:11.801Z,8.90
2023-04-11T09:31:41.505Z,12.98
2023-04-11T09:34:09.301Z,46.42
2023-04-11T09:36:37.074Z,28.25
2023-04-11T09:39:17.433Z,17.50
2023-04-11T09:41:45.171Z,13.45
2023-04-11T09:44:14.196Z,19.83
2023-04-11T09:46:57.212Z,14.43
2023-04-11T09:49:25.187Z,16.38
2023-04-11T09:51:53.082Z,15.55
2023-04-11T09:54:21.659Z,10.68
2023-04-11T09:56:49.382Z,10.48
2023-04-11T09:59:18.440Z,14.13
2023-04-11T10:01:46.969Z,16.30
2023-04-11T10:04:14.832Z,18.73
2023-04-11T10:06:45.252Z,12.73
2023-04-11T10:09:13.865Z,10.90
2023-04-11T10:11:42.321Z,13.45
2023-04-11T10:14:10.671Z,13.18
2023-04-11T10:16:42.332Z,12.55
2023-04-11T10:19:25.800Z,12.00
2023-04-11T10:21:53.496Z,11.60
2023-04-11T10:24:22.068Z,13.32
2023-04-11T10:26:51.302Z,12.30
2023-04-11T10:29:51.595Z,11.75
2023-04-11T10:32:24.460Z,7.25
2023-04-11T10:35:20.394Z,9.90
2023-04-11T10:37:48.532Z,9.70
2023-04-11T10:40:16.813Z,12.77
2023-04-11T10:42:44.788Z,13.63
2023-04-11T10:45:19.364Z,7.40
2023-04-11T10:48:05.497Z,7.13
2023-04-11T10:50:42.023Z,8.23
2023-04-11T10:53:14.285Z,12.23
2023-04-11T10:55:46.806Z,6.60
2023-04-11T10:58:16.276Z,6.90
2023-04-11T11:01:37.077Z,8.90
2023-04-11T11:04:07.071Z,6.13
2023-04-11T11:06:46.237Z,5.68
2023-04-11T11:09:23.043Z,9.70
2023-04-11T11:12:09.077Z,6.03
2023-04-11T11:14:36.822Z,4.03
2023-04-11T11:17:04.708Z,5.00
2023-04-11T11:19:33.856Z,5.22
2023-04-11T11:22:03.911Z,6.97
2023-04-11T11:24:31.826Z,5.43
2023-04-11T11:26:59.576Z,5.72
2023-04-11T11:29:34.695Z,7.82
2023-04-11T11:32:03.567Z,8.32
2023-04-11T11:34:33.723Z,4.22
2023-04-11T11:37:04.328Z,6.43
2023-04-11T11:39:32.196Z,6.88
2023-04-11T11:41:59.918Z,4.15
2023-04-11T11:44:28.632Z,3.67
2023-04-11T11:47:02.893Z,4.30
2023-04-11T11:49:45.841Z,3.33
2023-04-11T11:52:13.760Z,4.13
2023-04-11T11:54:45.355Z,3.38
2023-04-11T11:57:13.143Z,4.95
2023-04-11T11:59:40.870Z,4.07
2023-04-11T12:02:08.635Z,4.72
2023-04-11T12:04:36.589Z,3.53
2023-04-11T12:07:11.131Z,5.68
2023-04-11T12:09:39.784Z,3.63
2023-04-11T12:12:09.833Z,5.03
2023-04-11T12:14:37.509Z,3.58
2023-04-11T12:17:05.270Z,5.85
2023-04-11T12:19:32.917Z,6.35
2023-04-11T12:22:01.780Z,3.63
2023-04-11T12:24:30.781Z,6.60
2023-04-11T12:27:07.097Z,4.63
2023-04-11T12:29:35.328Z,2.75
2023-04-11T12:32:03.911Z,3.63
2023-04-11T12:34:31.654Z,3.67
2023-04-11T12:36:59.319Z,3.92
2023-04-11T12:39:27.224Z,3.83
2023-04-11T12:41:56.245Z,4.18
2023-04-11T12:44:23.983Z,4.32
2023-04-11T12:46:51.818Z,2.67
2023-04-11T12:49:19.555Z,2.45
2023-04-11T12:51:47.238Z,4.13
2023-04-11T12:54:15.000Z,5.13
2023-04-11T12:56:42.796Z,3.60
2023-04-11T12:59:11.834Z,2.65
2023-04-11T13:01:39.665Z,1.83
2023-04-11T13:04:07.643Z,2.90
2023-04-11T13:06:36.062Z,3.17
2023-04-11T13:09:05.945Z,2.92
2023-04-11T13:11:35.294Z,3.03
2023-04-11T13:14:03.094Z,4.25
2023-04-11T13:16:32.871Z,5.43
2023-04-11T13:19:01.286Z,3.58
2023-04-11T13:21:29.011Z,2.80
2023-04-11T13:23:56.862Z,3.28
2023-04-11T13:26:24.855Z,2.65
2023-04-11T13:28:52.547Z,2.08
2023-04-11T13:31:26.246Z,2.22
2023-04-11T13:33:55.965Z,3.58
2023-04-11T13:36:23.850Z,2.47
2023-04-11T13:38:51.694Z,3.53
2023-04-11T13:41:19.387Z,4.13
2023-04-11T13:43:47.103Z,2.53
2023-04-11T13:46:16.610Z,2.60
2023-04-11T13:48:44.332Z,1.95
2023-04-11T13:51:13.418Z,2.53
2023-04-11T13:53:41.127Z,3.33
2023-04-11T13:56:09.277Z,1.83
2023-04-11T13:58:38.062Z,1.67
2023-04-11T14:01:06.592Z,2.10
2023-04-11T14:03:34.538Z,3.13
2023-04-11T14:06:03.300Z,2.38
2023-04-11T14:08:32.326Z,2.55
2023-04-11T14:11:00.008Z,2.22
2023-04-11T14:13:27.893Z,2.80
2023-04-11T14:18:28.938Z,2.40
2023-04-11T14:20:58.310Z,2.10
2023-04-11T14:23:26.591Z,2.28
2023-04-11T14:25:55.801Z,1.85
2023-04-11T14:28:26.548Z,2.22
2023-04-11T14:30:54.728Z,2.72
2023-04-11T14:33:22.908Z,2.05
2023-04-11T14:35:51.291Z,2.95
2023-04-11T14:38:18.956Z,3.40
2023-04-11T14:40:46.610Z,18.23
2023-04-11T14:43:16.642Z,5.57
2023-04-11T14:45:44.372Z,3.00
2023-04-11T14:48:12.061Z,17.35
2023-04-11T14:50:39.753Z,3.88
2023-04-11T14:53:07.421Z,11.50
2023-04-11T14:55:35.101Z,17.33
2023-04-11T14:58:02.779Z,8.10
2023-04-11T15:00:32.569Z,7.57
2023-04-11T15:03:00.555Z,6.85
2023-04-11T15:05:28.354Z,4.47
2023-04-11T15:07:56.071Z,3.88
2023-04-11T15:10:25.653Z,5.32
2023-04-11T15:12:53.658Z,9.20
2023-04-11T15:15:21.507Z,6.80
2023-04-11T15:17:51.084Z,4.30
2023-04-11T15:20:19.902Z,2.92
2023-04-11T15:22:48.658Z,3.72
2023-04-11T15:25:16.458Z,7.50
2023-04-11T15:27:44.222Z,5.68
2023-04-11T15:30:12.530Z,4.93
2023-04-11T15:32:42.992Z,4.30
2023-04-11T15:35:12.227Z,3.70
2023-04-11T15:37:39.953Z,3.63
2023-04-11T15:40:11.765Z,7.47
2023-04-11T15:42:39.448Z,4.35
2023-04-11T15:45:08.440Z,5.20
2023-04-11T15:47:36.190Z,3.80
2023-04-11T15:50:04.604Z,3.35
2023-04-11T15:52:33.849Z,4.70
2023-04-11T15:55:01.512Z,6.53
2023-04-11T15:57:29.175Z,2.97
2023-04-11T15:59:56.904Z,4.68
2023-04-11T16:02:24.731Z,4.35
2023-04-11T16:04:54.120Z,2.83
2023-04-11T16:07:23.051Z,1.95
2023-04-11T16:09:52.274Z,3.15
2023-04-11T16:12:19.986Z,3.85
2023-04-11T16:14:47.704Z,4.53
2023-04-11T16:17:15.696Z,3.63
2023-04-11T16:19:43.351Z,2.55
2023-04-11T16:22:11.048Z,1.52
2023-04-11T16:24:38.768Z,1.92
2023-04-11T16:27:07.733Z,2.85
2023-04-11T16:29:35.380Z,2.35
2023-04-11T16:32:03.836Z,3.17
2023-04-11T16:34:31.663Z,1.55
2023-04-11T16:36:59.352Z,3.40
2023-04-11T16:39:27.197Z,2.25
2023-04-11T16:41:55.994Z,1.83
2023-04-11T16:44:25.368Z,2.53
2023-04-11T16:46:53.031Z,2.67
2023-04-11T16:49:20.736Z,3.28
2023-04-11T16:51:48.390Z,2.40
2023-04-11T16:54:16.196Z,2.88
2023-04-11T16:56:48.080Z,2.25
2023-04-11T16:59:15.872Z,1.95
2023-04-11T17:01:45.408Z,2.47
2023-04-11T17:04:13.626Z,3.75
2023-04-11T17:06:41.351Z,1.85
2023-04-11T17:09:09.666Z,3.55
2023-04-11T17:11:37.913Z,2.63
2023-04-11T17:14:05.783Z,2.92
2023-04-11T17:16:33.557Z,2.55
2023-04-11T17:19:03.598Z,2.80
2023-04-11T17:21:31.611Z,1.85
2023-04-11T17:23:59.417Z,1.70
2023-04-11T17:26:27.255Z,2.47
2023-04-11T17:28:55.027Z,1.15
2023-04-11T17:31:22.851Z,0.98
2023-04-11T17:33:50.656Z,1.67
2023-04-11T17:36:19.772Z,1.27
2023-04-11T17:38:48.289Z,2.33
2023-04-11T17:41:16.216Z,2.00
2023-04-11T17:43:43.999Z,2.03
2023-04-11T17:46:12.371Z,1.55
2023-04-11T17:48:40.186Z,1.80
2023-04-11T17:51:08.068Z,2.55
2023-04-11T17:53:37.109Z,3.38
2023-04-11T17:56:05.647Z,2.22
2023-04-11T17:58:33.616Z,2.40
2023-04-11T18:01:03.192Z,1.52
2023-04-11T18:03:34.972Z,1.52
2023-04-11T18:06:03.227Z,1.15
2023-04-11T18:08:49.146Z,2.25
2023-04-11T18:11:20.820Z,1.20
2023-04-11T18:13:53.868Z,1.58
2023-04-11T18:16:22.171Z,2.10
2023-04-11T18:18:49.861Z,1.20
2023-04-11T18:21:17.678Z,1.83
2023-04-11T18:23:45.366Z,2.45
2023-04-11T18:26:13.006Z,1.13
2023-04-11T18:28:42.085Z,2.10
2023-04-11T18:31:10.866Z,1.75
2023-04-11T18:33:42.617Z,1.50
2023-04-11T18:36:12.005Z,1.30
2023-04-11T18:38:39.731Z,1.42
2023-04-11T18:41:08.036Z,1.50
2023-04-11T18:43:38.182Z,1.33
2023-04-11T18:46:09.465Z,1.40
2023-04-11T18:48:37.501Z,1.27
2023-04-11T18:51:05.807Z,1.83
2023-04-11T18:53:34.751Z,2.05
2023-04-11T18:56:03.487Z,1.10
2023-04-11T18:58:33.079Z,2.65
2023-04-11T19:01:14.017Z,1.00
2023-04-11T19:03:44.416Z,1.08
2023-04-11T19:06:13.008Z,1.88
2023-04-11T19:08:40.866Z,1.27
2023-04-11T19:11:08.603Z,1.10
2023-04-11T19:13:36.329Z,1.05
2023-04-11T19:16:04.171Z,1.33
2023-04-11T19:18:31.887Z,1.88
2023-04-11T19:21:00.906Z,1.92
2023-04-11T19:23:28.577Z,0.98
2023-04-11T19:25:56.581Z,2.10
2023-04-11T19:28:24.335Z,1.30
2023-04-11T19:30:51.990Z,1.05
2023-04-11T19:33:19.752Z,2.45
2023-04-11T19:35:47.511Z,1.30
2023-04-11T19:38:16.568Z,1.30
2023-04-11T19:40:44.228Z,1.20
2023-04-11T19:43:11.926Z,1.00
2023-04-11T19:45:39.613Z,1.73
2023-04-11T19:48:07.432Z,1.17
2023-04-11T19:50:35.704Z,2.72
2023-04-11T19:53:03.413Z,1.70
2023-04-11T19:55:32.449Z,0.95
2023-04-11T19:58:00.280Z,3.15
2023-04-11T20:00:31.819Z,1.00
2023-04-11T20:02:59.668Z,1.65
2023-04-11T20:05:31.251Z,2.33
2023-04-11T20:07:59.139Z,2.10
2023-04-11T20:10:28.263Z,1.60
2023-04-11T20:12:57.245Z,1.20
2023-04-11T20:15:25.477Z,2.05
2023-04-11T20:17:53.301Z,1.45
2023-04-11T20:20:21.906Z,1.02
2023-04-11T20:22:49.865Z,1.20
2023-04-11T20:25:17.592Z,1.60
2023-04-11T20:27:45.251Z,1.45
2023-04-11T20:30:16.500Z,1.70
2023-04-11T20:32:46.682Z,1.10
2023-04-11T20:35:14.476Z,1.67
2023-04-11T20:37:43.273Z,2.15
2023-04-11T20:40:13.001Z,1.00
2023-04-11T20:42:41.494Z,1.20
2023-04-11T20:45:10.497Z,1.00
2023-04-11T20:47:39.765Z,1.42
2023-04-11T20:50:08.868Z,1.10
2023-04-11T20:52:36.958Z,1.25
2023-04-11T20:55:04.966Z,0.75
2023-04-11T20:57:33.476Z,1.25
2023-04-11T21:00:01.325Z,1.40
2023-04-11T21:02:29.256Z,1.77
2023-04-11T21:04:58.404Z,1.27
2023-04-11T21:07:26.197Z,1.23
2023-04-11T21:09:56.182Z,1.05
2023-04-11T21:12:23.921Z,1.70
2023-04-11T21:14:51.987Z,1.13
2023-04-11T21:17:20.518Z,2.25
2023-04-11T21:19:48.221Z,1.45
2023-04-11T21:22:17.227Z,1.38
2023-04-11T21:24:44.924Z,1.88
2023-04-11T21:27:12.792Z,0.98
2023-04-11T21:29:40.632Z,2.10
2023-04-11T21:32:08.393Z,1.35
2023-04-11T21:34:36.097Z,1.50
2023-04-11T21:37:03.804Z,1.40
2023-04-11T21:39:32.793Z,1.17
2023-04-11T21:42:01.482Z,1.20
2023-04-11T21:44:29.547Z,1.00
2023-04-11T21:46:57.317Z,1.27
2023-04-11T21:49:25.624Z,1.75
2023-04-11T21:51:53.621Z,1.85
2023-04-11T21:54:21.445Z,1.10
2023-04-11T21:56:50.642Z,1.30
2023-04-11T21:59:18.651Z,1.05
2023-04-11T22:01:47.820Z,1.10
2023-04-11T22:04:17.615Z,1.20
2023-04-11T22:06:46.837Z,1.10
2023-04-11T22:09:14.823Z,1.35
2023-04-11T22:11:42.509Z,1.48
2023-04-11T22:14:16.022Z,2.17
2023-04-11T22:16:48.815Z,1.00
2023-04-11T22:19:17.815Z,1.58
2023-04-11T22:21:48.493Z,1.02
2023-04-11T22:24:16.175Z,1.55
2023-04-11T22:26:48.582Z,1.05
2023-04-11T22:29:18.097Z,2.65
2023-04-11T22:31:46.864Z,1.10
2023-04-11T22:34:14.650Z,1.73
2023-04-11T22:36:42.318Z,1.33
2023-04-11T22:39:10.310Z,1.10
2023-04-11T22:41:38.573Z,2.63
2023-04-11T22:44:06.911Z,0.98
2023-04-11T22:46:38.449Z,2.30
2023-04-11T22:49:06.603Z,1.42
2023-04-11T22:51:34.347Z,1.52
2023-04-11T22:54:02.205Z,1.75
2023-04-11T22:56:29.870Z,1.98
2023-04-11T22:58:57.612Z,1.10
2023-04-11T23:01:25.308Z,1.40
2023-04-11T23:03:54.394Z,1.02
2023-04-11T23:06:22.259Z,1.60
2023-04-11T23:08:49.968Z,1.40
2023-04-11T23:11:17.879Z,1.05
2023-04-11T23:13:45.989Z,1.38
2023-04-11T23:16:14.158Z,1.58
2023-04-11T23:18:41.840Z,1.08
2023-04-11T23:21:14.348Z,0.95
2023-04-11T23:23:42.019Z,0.90
2023-04-11T23:26:10.728Z,1.00
2023-04-11T23:28:38.692Z,1.42
2023-04-11T23:31:06.716Z,1.60
2023-04-11T23:33:35.253Z,1.73
2023-04-11T23:36:03.011Z,1.20
2023-04-11T23:38:32.506Z,1.08
2023-04-11T23:41:00.422Z,1.73
2023-04-11T23:43:28.070Z,0.93
2023-04-11T23:45:56.482Z,1.00
2023-04-11T23:48:24.156Z,1.10
2023-04-11T23:50:52.162Z,1.52
2023-04-11T23:53:19.855Z,1.20
2023-04-11T23:55:48.902Z,1.50
2023-04-11T23:58:16.536Z,1.00
